Time;durP1;ratioP1;P1;durP2;ratioP2;P2;SDS_P1;SDS_P2;PMS_P1;PMS_P2;Temp;Humidity;BMP_temperature;BMP_pressure;BME280_temperature;BME280_humidity;BME280_pressure;Samples;Min_cycle;Max_cycle;Signal;HPM_P1;HPM_P2
2023/06/10 00:00:08;;;;;;;8.47;4.13;;;16.00;99.90;;;;;;5086995;28;20227;-64
2023/06/10 00:02:43;;;;;;;8.03;4.30;;;15.90;99.90;;;;;;5091729;28;20698;-63
2023/06/10 00:05:12;;;;;;;10.87;4.93;;;15.90;99.90;;;;;;5091030;28;20234;-63
2023/06/10 00:07:41;;;;;;;9.90;4.20;;;15.80;99.90;;;;;;5092171;28;20272;-64
2023/06/10 00:10:10;;;;;;;8.23;4.43;;;15.80;99.90;;;;;;5081135;28;20278;-64
2023/06/10 00:12:38;;;;;;;12.13;5.00;;;15.80;99.90;;;;;;5078215;28;20215;-63
2023/06/10 00:15:09;;;;;;;12.80;5.33;;;15.70;99.90;;;;;;5091610;28;20221;-63
2023/06/10 00:17:38;;;;;;;10.90;4.73;;;15.70;99.90;;;;;;5089029;28;20246;-63
2023/06/10 00:20:11;;;;;;;7.20;4.20;;;15.70;99.90;;;;;;5085157;28;20230;-64
2023/06/10 00:22:41;;;;;;;9.03;4.30;;;15.70;99.90;;;;;;5088472;28;20229;-63
2023/06/10 00:25:10;;;;;;;6.33;4.50;;;15.60;99.90;;;;;;5082717;28;20278;-64
2023/06/10 00:27:39;;;;;;;10.00;4.90;;;15.60;99.90;;;;;;5085788;28;20268;-63
2023/06/10 00:30:09;;;;;;;7.43;4.80;;;15.60;99.90;;;;;;5084964;28;20301;-63
2023/06/10 00:32:38;;;;;;;9.43;4.93;;;15.50;99.90;;;;;;5093026;28;20231;-63
2023/06/10 00:35:07;;;;;;;10.53;5.33;;;15.50;99.90;;;;;;5066414;28;20230;-64
2023/06/10 00:37:36;;;;;;;9.17;4.80;;;15.40;99.90;;;;;;5088062;28;20314;-64
2023/06/10 00:40:05;;;;;;;10.50;4.67;;;15.30;99.90;;;;;;5061759;28;20253;-63
2023/06/10 00:42:33;;;;;;;9.73;4.70;;;15.40;99.90;;;;;;5092529;28;20253;-63
2023/06/10 00:45:02;;;;;;;10.97;4.70;;;15.40;99.90;;;;;;5086923;28;20254;-63
2023/06/10 00:47:32;;;;;;;9.67;4.57;;;15.40;99.90;;;;;;5085840;28;20215;-63
2023/06/10 00:50:01;;;;;;;8.80;4.60;;;15.40;99.90;;;;;;5089297;28;20218;-63
2023/06/10 00:52:30;;;;;;;9.67;5.07;;;15.30;99.90;;;;;;5097689;28;20227;-63
2023/06/10 00:54:59;;;;;;;9.80;5.10;;;15.30;99.90;;;;;;5088489;28;20241;-64
2023/06/10 00:57:29;;;;;;;8.70;5.37;;;15.20;99.90;;;;;;5074516;28;20616;-63
2023/06/10 00:59:58;;;;;;;8.70;5.27;;;15.20;99.90;;;;;;5088620;28;20230;-63
2023/06/10 01:02:28;;;;;;;8.10;4.60;;;15.30;99.90;;;;;;5086320;28;20219;-63
2023/06/10 01:05:01;;;;;;;10.67;4.80;;;15.30;99.90;;;;;;5075222;28;20222;-64
2023/06/10 01:07:35;;;;;;;7.97;5.13;;;15.20;99.90;;;;;;5089564;28;20602;-63
2023/06/10 01:10:06;;;;;;;8.10;4.80;;;15.20;99.90;;;;;;5076648;28;20698;-63
2023/06/10 01:12:40;;;;;;;11.17;5.00;;;15.10;99.90;;;;;;5054786;28;20227;-63
2023/06/10 01:15:09;;;;;;;11.30;5.07;;;15.10;99.90;;;;;;5072919;28;20215;-63
2023/06/10 01:17:57;;;;;;;12.87;5.17;;;15.10;99.90;;;;;;5054520;28;20239;-63
2023/06/10 01:20:28;;;;;;;7.20;4.53;;;15.00;99.90;;;;;;5073385;28;20226;-63
2023/06/10 01:22:59;;;;;;;8.53;4.17;;;15.00;99.90;;;;;;5086118;28;20226;-64
2023/06/10 01:25:28;;;;;;;8.37;4.37;;;14.90;99.90;;;;;;5087104;28;20285;-63
2023/06/10 01:28:05;;;;;;;10.03;4.73;;;14.90;99.90;;;;;;5072786;28;20799;-64
2023/06/10 01:30:41;;;;;;;9.20;4.50;;;14.80;99.90;;;;;;5072479;28;20619;-63
2023/06/10 01:33:11;;;;;;;9.47;4.37;;;14.80;99.90;;;;;;5067315;28;20762;-63
2023/06/10 01:35:44;;;;;;;6.37;4.20;;;14.70;99.90;;;;;;5074366;28;20759;-63
2023/06/10 01:38:16;;;;;;;10.17;4.57;;;14.70;99.90;;;;;;5085821;28;20218;-63
2023/06/10 01:40:44;;;;;;;7.97;4.00;;;14.70;99.90;;;;;;5085962;28;20309;-64
2023/06/10 01:43:13;;;;;;;10.63;4.00;;;14.70;99.90;;;;;;5088570;28;20219;-63
2023/06/10 01:45:41;;;;;;;6.37;3.80;;;14.70;99.90;;;;;;5082895;28;20219;-63
2023/06/10 01:48:09;;;;;;;5.50;3.70;;;14.70;99.90;;;;;;5063265;28;20223;-63
2023/06/10 01:50:37;;;;;;;9.70;3.90;;;14.70;99.90;;;;;;5069998;28;20316;-63
2023/06/10 01:53:06;;;;;;;9.93;3.77;;;14.60;99.90;;;;;;5072072;28;20219;-63
2023/06/10 01:55:35;;;;;;;6.53;3.80;;;14.60;99.90;;;;;;5091724;28;20223;-63
2023/06/10 01:58:03;;;;;;;8.47;3.50;;;14.60;99.90;;;;;;5090525;28;20314;-64
2023/06/10 02:00:31;;;;;;;8.13;4.20;;;14.60;99.90;;;;;;5065072;28;20242;-63
2023/06/10 02:02:59;;;;;;;8.10;3.63;;;14.50;99.90;;;;;;5089569;28;20221;-63
2023/06/10 02:05:27;;;;;;;5.37;3.93;;;14.50;99.90;;;;;;5071427;28;20230;-63
2023/06/10 02:07:55;;;;;;;7.77;3.87;;;14.40;99.90;;;;;;5091883;28;20223;-63
2023/06/10 02:10:23;;;;;;;6.93;3.33;;;14.40;99.90;;;;;;5077497;28;20223;-64
2023/06/10 02:12:53;;;;;;;7.50;3.57;;;14.30;99.90;;;;;;5077125;28;20233;-64
2023/06/10 02:15:21;;;;;;;6.77;3.67;;;14.40;99.90;;;;;;5094736;28;20217;-64
2023/06/10 02:17:50;;;;;;;6.27;3.80;;;14.40;99.90;;;;;;5078921;28;20223;-64
2023/06/10 02:20:18;;;;;;;8.13;3.67;;;14.30;99.90;;;;;;5094572;28;20262;-63
2023/06/10 02:22:47;;;;;;;5.40;3.00;;;14.40;99.90;;;;;;5079546;28;20230;-64
2023/06/10 02:25:15;;;;;;;8.27;3.53;;;14.30;99.90;;;;;;5089329;28;20563;-64
2023/06/10 02:27:43;;;;;;;8.17;4.03;;;14.30;99.90;;;;;;5059693;28;20252;-63
2023/06/10 02:30:14;;;;;;;7.17;3.10;;;14.20;99.90;;;;;;5074721;28;20226;-63
2023/06/10 02:32:42;;;;;;;6.80;3.27;;;14.20;99.90;;;;;;5073767;28;20251;-64
2023/06/10 02:35:12;;;;;;;6.77;3.40;;;14.20;99.90;;;;;;5093955;28;20709;-63
2023/06/10 02:37:40;;;;;;;9.63;4.73;;;14.20;99.90;;;;;;5075539;28;20650;-64
2023/06/10 02:40:11;;;;;;;8.30;3.70;;;14.20;99.90;;;;;;5069637;28;20692;-63
2023/06/10 02:42:39;;;;;;;9.93;3.60;;;14.20;99.90;;;;;;5069041;28;20223;-63
2023/06/10 02:45:09;;;;;;;6.77;3.40;;;14.10;99.90;;;;;;5073809;28;20253;-63
2023/06/10 02:47:42;;;;;;;10.90;3.63;;;14.10;99.90;;;;;;5073814;28;20672;-63
2023/06/10 02:50:12;;;;;;;5.27;3.10;;;14.10;99.90;;;;;;5092119;28;20728;-63
2023/06/10 02:52:51;;;;;;;8.30;3.37;;;14.10;99.90;;;;;;5107268;28;20309;-63
2023/06/10 02:55:19;;;;;;;7.23;3.10;;;14.10;99.90;;;;;;5077567;28;20229;-63
2023/06/10 02:57:53;;;;;;;6.53;3.20;;;14.00;99.90;;;;;;5078017;28;20309;-64
2023/06/10 03:00:22;;;;;;;6.27;3.23;;;14.10;99.90;;;;;;5077229;28;20645;-63
2023/06/10 03:02:52;;;;;;;8.37;3.20;;;14.10;99.90;;;;;;5077148;28;20249;-63
2023/06/10 03:05:24;;;;;;;5.63;3.20;;;14.10;99.90;;;;;;5065441;28;20226;-63
2023/06/10 03:07:55;;;;;;;6.93;3.00;;;14.00;99.90;;;;;;5069902;28;20223;-63
2023/06/10 03:10:25;;;;;;;9.20;3.30;;;14.00;99.90;;;;;;5081469;28;20318;-63
2023/06/10 03:12:53;;;;;;;6.53;2.90;;;14.00;99.90;;;;;;5077177;28;20259;-63
2023/06/10 03:15:24;;;;;;;6.67;3.17;;;14.00;99.90;;;;;;5076982;28;20230;-63
2023/06/10 03:17:54;;;;;;;6.47;2.97;;;14.00;99.90;;;;;;5087999;28;20233;-63
2023/06/10 03:20:23;;;;;;;6.97;2.90;;;14.00;99.90;;;;;;5058661;28;20284;-63
2023/06/10 03:22:51;;;;;;;5.90;2.80;;;14.10;99.90;;;;;;5057747;28;20262;-63
2023/06/10 03:25:20;;;;;;;7.43;2.90;;;14.10;99.90;;;;;;5078530;28;20230;-63
2023/06/10 03:27:52;;;;;;;4.97;2.57;;;14.20;99.90;;;;;;5084945;28;20231;-63
2023/06/10 03:30:20;;;;;;;6.00;3.20;;;14.20;99.90;;;;;;5093656;28;20248;-63
2023/06/10 03:32:48;;;;;;;4.47;2.80;;;14.20;99.90;;;;;;5070872;28;20223;-63
2023/06/10 03:35:20;;;;;;;7.90;3.30;;;14.20;99.90;;;;;;5086558;28;20207;-62
2023/06/10 03:37:48;;;;;;;6.83;3.07;;;14.20;99.90;;;;;;5076916;28;20230;-63
2023/06/10 03:40:16;;;;;;;7.40;2.67;;;14.20;99.90;;;;;;5077019;28;20244;-63
2023/06/10 03:42:47;;;;;;;6.33;3.10;;;14.30;99.90;;;;;;5076760;28;20300;-63
2023/06/10 03:45:17;;;;;;;7.60;2.93;;;14.40;99.90;;;;;;5076766;28;20234;-64
2023/06/10 03:47:47;;;;;;;5.20;2.80;;;14.40;99.90;;;;;;5076635;28;20227;-64
2023/06/10 03:50:20;;;;;;;6.17;2.97;;;14.40;99.90;;;;;;5075123;28;20746;-63
2023/06/10 03:52:48;;;;;;;5.90;3.10;;;14.40;99.90;;;;;;5094876;28;20228;-64
2023/06/10 03:55:21;;;;;;;7.67;3.13;;;14.40;99.90;;;;;;5074277;28;20305;-64
2023/06/10 03:57:50;;;;;;;8.10;3.20;;;14.40;99.90;;;;;;5082961;28;20739;-63
2023/06/10 04:00:21;;;;;;;5.50;2.63;;;14.50;99.90;;;;;;5093087;28;20647;-63
2023/06/10 04:02:51;;;;;;;6.20;2.50;;;14.50;99.90;;;;;;5094724;28;20222;-64
2023/06/10 04:05:33;;;;;;;7.60;2.80;;;14.50;99.90;;;;;;5071514;28;20689;-63
2023/06/10 04:08:01;;;;;;;8.40;3.10;;;14.60;99.90;;;;;;5094432;28;20746;-63
2023/06/10 04:10:29;;;;;;;6.47;3.00;;;14.60;99.90;;;;;;5076361;28;20318;-63
2023/06/10 04:12:57;;;;;;;9.40;3.50;;;14.60;99.90;;;;;;5089362;28;20258;-64
2023/06/10 04:15:29;;;;;;;6.33;3.20;;;14.60;99.90;;;;;;5064343;28;20249;-63
2023/06/10 04:17:58;;;;;;;4.77;2.63;;;14.70;99.90;;;;;;5055852;28;20278;-64
2023/06/10 04:20:27;;;;;;;6.67;3.00;;;14.70;99.90;;;;;;5064388;28;20690;-64
2023/06/10 04:22:56;;;;;;;6.37;3.00;;;14.90;99.90;;;;;;5073939;28;20216;-64
2023/06/10 04:25:26;;;;;;;7.93;3.07;;;14.90;99.90;;;;;;5073734;28;20250;-64
2023/06/10 04:27:56;;;;;;;5.53;3.00;;;14.90;99.90;;;;;;5061432;28;20230;-64
2023/06/10 04:30:25;;;;;;;6.13;2.60;;;15.10;99.90;;;;;;5075500;28;20222;-64
2023/06/10 04:32:54;;;;;;;6.03;2.97;;;15.10;99.90;;;;;;5074490;28;20215;-64
2023/06/10 04:35:22;;;;;;;6.90;2.93;;;15.00;99.90;;;;;;5093009;28;20272;-64
2023/06/10 04:37:50;;;;;;;5.47;2.80;;;15.20;99.90;;;;;;5067493;28;20227;-64
2023/06/10 04:40:20;;;;;;;5.37;2.83;;;15.20;99.90;;;;;;5055712;28;20227;-63
2023/06/10 04:42:48;;;;;;;7.20;3.10;;;15.30;99.90;;;;;;5070251;28;20254;-64
2023/06/10 04:45:17;;;;;;;5.90;2.70;;;15.40;99.90;;;;;;5091558;28;20474;-64
2023/06/10 04:47:45;;;;;;;7.93;3.20;;;15.50;99.90;;;;;;5067802;28;21336;-64
2023/06/10 04:50:13;;;;;;;7.20;3.10;;;15.60;99.90;;;;;;5074475;28;20223;-65
2023/06/10 04:52:42;;;;;;;5.30;2.90;;;15.70;99.90;;;;;;5093326;28;20298;-64
2023/06/10 04:55:10;;;;;;;7.80;3.20;;;15.70;99.90;;;;;;5092190;28;20774;-64
2023/06/10 04:57:40;;;;;;;8.03;3.23;;;15.80;99.90;;;;;;5093289;28;20215;-64
2023/06/10 05:00:09;;;;;;;5.20;2.93;;;15.80;99.90;;;;;;5093473;28;20214;-64
2023/06/10 05:02:37;;;;;;;6.63;3.30;;;15.90;99.90;;;;;;5092866;28;20227;-64
2023/06/10 05:05:06;;;;;;;5.70;3.03;;;15.90;99.90;;;;;;5092243;28;20219;-64
2023/06/10 05:07:34;;;;;;;7.20;3.33;;;16.10;99.90;;;;;;5089020;28;20219;-65
2023/06/10 05:10:02;;;;;;;6.13;3.40;;;16.20;99.90;;;;;;5093342;28;20237;-65
2023/06/10 05:12:31;;;;;;;7.63;3.37;;;16.20;99.90;;;;;;5093071;28;20584;-64
2023/06/10 05:15:00;;;;;;;5.57;2.97;;;16.40;99.90;;;;;;5097402;28;20227;-64
2023/06/10 05:17:29;;;;;;;6.00;3.00;;;16.30;99.90;;;;;;5092798;28;20586;-64
2023/06/10 05:19:57;;;;;;;7.27;3.40;;;16.20;99.90;;;;;;5091533;28;20246;-64
2023/06/10 05:22:25;;;;;;;7.80;3.17;;;16.20;99.90;;;;;;5091861;28;20767;-64
2023/06/10 05:24:53;;;;;;;8.73;3.30;;;16.30;99.90;;;;;;5092902;28;20583;-64
2023/06/10 05:27:22;;;;;;;9.17;3.30;;;16.50;99.90;;;;;;5092521;28;20223;-65
2023/06/10 05:29:51;;;;;;;7.30;3.40;;;16.80;99.90;;;;;;5091308;28;20757;-64
2023/06/10 05:32:20;;;;;;;5.27;3.00;;;17.00;99.90;;;;;;5092519;28;20730;-65
2023/06/10 05:34:48;;;;;;;7.27;2.77;;;17.10;99.90;;;;;;5093023;28;20576;-64
2023/06/10 05:37:16;;;;;;;9.03;3.27;;;17.20;99.90;;;;;;5091502;28;20212;-64
2023/06/10 05:39:44;;;;;;;8.80;3.07;;;17.20;99.90;;;;;;5092542;28;20231;-65
2023/06/10 05:42:12;;;;;;;6.37;2.67;;;17.40;99.90;;;;;;5092337;28;20216;-64
2023/06/10 05:44:40;;;;;;;5.80;2.50;;;17.50;99.90;;;;;;5091182;28;20219;-64
2023/06/10 05:47:09;;;;;;;7.57;2.87;;;17.60;99.90;;;;;;5089983;28;20713;-65
2023/06/10 05:49:38;;;;;;;6.20;2.60;;;17.60;99.90;;;;;;5092428;28;20228;-65
2023/06/10 05:52:07;;;;;;;6.00;2.90;;;17.60;99.90;;;;;;5080000;28;20225;-64
2023/06/10 05:54:35;;;;;;;8.53;2.60;;;17.50;99.90;;;;;;5072246;28;20230;-64
2023/06/10 05:57:05;;;;;;;6.60;2.83;;;17.40;99.90;;;;;;5072523;28;20296;-65
2023/06/10 05:59:33;;;;;;;6.43;2.70;;;17.50;99.90;;;;;;5072321;28;20246;-64
2023/06/10 06:02:01;;;;;;;7.37;2.90;;;17.60;99.90;;;;;;5079896;28;20681;-65
2023/06/10 06:04:30;;;;;;;8.50;2.90;;;17.90;99.90;;;;;;5092657;28;20326;-65
2023/06/10 06:06:59;;;;;;;7.50;2.70;;;18.20;99.90;;;;;;5084403;28;20232;-64
2023/06/10 06:09:27;;;;;;;6.97;2.70;;;18.20;99.90;;;;;;5086360;28;20225;-64
2023/06/10 06:11:55;;;;;;;11.43;2.47;;;18.40;99.90;;;;;;5086896;28;20238;-65
2023/06/10 06:14:23;;;;;;;6.83;2.83;;;18.40;99.90;;;;;;5089480;28;20690;-64
2023/06/10 06:16:51;;;;;;;7.00;2.87;;;18.50;99.90;;;;;;5087243;28;20305;-64
2023/06/10 06:19:19;;;;;;;7.83;2.80;;;18.40;99.90;;;;;;5089274;28;20235;-65
2023/06/10 06:21:47;;;;;;;9.27;2.93;;;18.10;99.90;;;;;;5091175;28;20612;-64
2023/06/10 06:24:17;;;;;;;6.70;2.70;;;18.50;99.90;;;;;;5090745;28;20294;-64
2023/06/10 06:26:45;;;;;;;9.47;3.10;;;19.00;99.90;;;;;;5091653;28;20769;-65
2023/06/10 06:29:13;;;;;;;5.47;2.60;;;18.80;99.90;;;;;;5092020;28;20227;-64
2023/06/10 06:31:41;;;;;;;7.53;2.87;;;18.80;99.90;;;;;;5091916;28;20688;-65
2023/06/10 06:34:10;;;;;;;6.23;2.43;;;19.10;99.90;;;;;;5092179;28;20229;-64
2023/06/10 06:36:39;;;;;;;4.80;2.50;;;19.30;99.90;;;;;;5091267;28;20590;-64
2023/06/10 06:39:08;;;;;;;4.67;2.37;;;19.30;99.90;;;;;;5074123;28;20226;-65
2023/06/10 06:41:37;;;;;;;6.50;2.80;;;19.30;99.90;;;;;;5073950;28;20237;-65
2023/06/10 06:44:06;;;;;;;7.53;2.33;;;19.30;99.90;;;;;;5090887;28;20706;-64
2023/06/10 06:46:38;;;;;;;9.53;2.83;;;19.30;99.90;;;;;;5088033;28;20270;-64
2023/06/10 06:49:06;;;;;;;9.70;2.63;;;19.40;99.90;;;;;;5091355;28;20693;-64
2023/06/10 06:51:35;;;;;;;5.97;2.30;;;19.60;99.90;;;;;;5090850;28;20723;-63
2023/06/10 06:54:05;;;;;;;6.77;2.70;;;20.00;99.90;;;;;;5079073;28;20223;-64
2023/06/10 06:56:33;;;;;;;6.67;2.23;;;20.30;99.90;;;;;;5091785;28;20339;-64
2023/06/10 06:59:04;;;;;;;7.67;2.57;;;20.20;99.90;;;;;;5095715;28;20229;-64
2023/06/10 07:01:34;;;;;;;7.90;3.27;;;20.00;99.90;;;;;;5095456;28;20588;-64
2023/06/10 07:04:02;;;;;;;7.00;2.60;;;19.80;99.90;;;;;;5088374;28;20724;-64
2023/06/10 07:06:31;;;;;;;8.27;2.80;;;19.70;99.90;;;;;;5077847;28;20222;-63
2023/06/10 07:08:59;;;;;;;6.17;2.60;;;19.90;99.90;;;;;;5081114;28;20229;-59
2023/06/10 07:11:27;;;;;;;5.53;2.53;;;19.90;99.90;;;;;;5081310;28;20222;-62
2023/06/10 07:13:55;;;;;;;7.97;3.00;;;20.30;99.90;;;;;;5091445;28;20237;-62
2023/06/10 07:16:24;;;;;;;9.47;2.80;;;20.90;99.90;;;;;;5090415;28;20236;-62
2023/06/10 07:18:53;;;;;;;6.93;2.77;;;21.00;99.90;;;;;;5094630;28;20722;-62
2023/06/10 07:21:22;;;;;;;5.70;2.50;;;20.80;99.90;;;;;;5094892;28;20580;-62
2023/06/10 07:23:53;;;;;;;6.83;2.33;;;21.00;99.90;;;;;;5093286;28;20254;-62
2023/06/10 07:26:23;;;;;;;7.03;2.90;;;21.30;99.90;;;;;;5093196;28;20303;-62
2023/06/10 07:28:54;;;;;;;5.07;2.60;;;21.40;99.90;;;;;;5091463;28;20226;-62
2023/06/10 07:31:24;;;;;;;5.40;2.40;;;21.50;99.90;;;;;;5094974;28;20317;-62
2023/06/10 07:33:52;;;;;;;7.87;2.70;;;21.70;99.90;;;;;;5094077;28;20305;-62
2023/06/10 07:36:20;;;;;;;6.13;2.47;;;21.80;99.90;;;;;;5095644;28;20218;-62
2023/06/10 07:38:49;;;;;;;4.37;2.17;;;21.70;99.90;;;;;;5087945;28;20597;-62
2023/06/10 07:41:19;;;;;;;7.73;2.70;;;22.10;99.90;;;;;;5094736;28;20219;-62
2023/06/10 07:43:47;;;;;;;7.27;2.97;;;22.10;99.90;;;;;;5089771;28;20698;-62
2023/06/10 07:46:15;;;;;;;6.50;2.60;;;22.50;99.90;;;;;;5094831;28;20311;-62
2023/06/10 07:48:45;;;;;;;7.10;2.47;;;22.70;99.90;;;;;;5074387;28;20227;-62
2023/06/10 07:51:13;;;;;;;7.13;2.67;;;22.80;99.90;;;;;;5092711;28;20223;-62
2023/06/10 07:53:41;;;;;;;7.03;2.47;;;23.00;99.90;;;;;;5093745;28;20682;-62
2023/06/10 07:56:09;;;;;;;6.50;2.40;;;23.20;99.90;;;;;;5095094;28;20630;-62
2023/06/10 07:58:37;;;;;;;8.07;2.57;;;23.10;99.90;;;;;;5113250;28;20218;-62
2023/06/10 08:01:05;;;;;;;8.43;3.20;;;23.30;99.90;;;;;;5110726;28;20236;-62
2023/06/10 08:03:33;;;;;;;7.53;2.40;;;23.30;99.90;;;;;;5092137;28;20222;-62
2023/06/10 08:06:03;;;;;;;6.57;2.33;;;23.50;99.90;;;;;;5095016;28;20305;-63
2023/06/10 08:08:31;;;;;;;5.23;2.77;;;23.70;99.90;;;;;;5093414;28;20278;-62
2023/06/10 08:10:59;;;;;;;7.17;2.83;;;23.70;99.90;;;;;;5094412;28;20301;-63
2023/06/10 08:13:27;;;;;;;7.37;2.90;;;23.90;99.90;;;;;;5093068;28;20613;-62
2023/06/10 08:15:55;;;;;;;6.37;2.30;;;24.10;99.90;;;;;;5093672;28;20316;-62
2023/06/10 08:18:23;;;;;;;8.23;2.73;;;24.30;99.90;;;;;;5091184;28;20244;-62
2023/06/10 08:20:51;;;;;;;6.37;2.40;;;24.40;99.90;;;;;;5094326;28;20303;-62
2023/06/10 08:23:21;;;;;;;5.37;2.37;;;24.30;99.90;;;;;;5094058;28;20654;-62
2023/06/10 08:25:49;;;;;;;6.60;2.40;;;24.40;99.90;;;;;;5093725;28;20227;-62
2023/06/10 08:28:17;;;;;;;4.80;2.10;;;24.50;99.90;;;;;;5093959;28;20239;-62
2023/06/10 08:30:46;;;;;;;5.03;2.20;;;24.80;99.90;;;;;;5084945;28;20379;-62
2023/06/10 08:33:14;;;;;;;4.87;2.60;;;25.20;99.90;;;;;;5092907;28;20224;-63
2023/06/10 08:35:42;;;;;;;9.90;3.10;;;25.30;99.90;;;;;;5093889;28;20295;-62
2023/06/10 08:38:10;;;;;;;6.50;2.50;;;25.50;99.90;;;;;;5093912;28;20666;-62
2023/06/10 08:40:39;;;;;;;11.60;2.80;;;25.50;99.90;;;;;;5093367;28;20310;-63
2023/06/10 08:43:11;;;;;;;5.93;2.57;;;25.30;99.90;;;;;;5093870;28;20225;-63
2023/06/10 08:45:43;;;;;;;6.50;2.60;;;25.30;99.90;;;;;;5083064;28;20635;-62
2023/06/10 08:48:13;;;;;;;5.77;2.63;;;25.30;99.90;;;;;;5091752;28;20564;-62
2023/06/10 08:50:42;;;;;;;5.97;2.40;;;25.50;99.90;;;;;;5070198;28;20288;-57
2023/06/10 08:53:15;;;;;;;8.00;3.00;;;25.60;99.90;;;;;;5077928;28;20230;-59
2023/06/10 08:55:49;;;;;;;5.13;2.57;;;25.70;99.90;;;;;;5080676;28;20229;-60
2023/06/10 08:58:18;;;;;;;6.60;2.40;;;25.60;99.90;;;;;;5093872;28;20680;-60
2023/06/10 09:00:47;;;;;;;6.17;2.60;;;25.90;99.90;;;;;;5101022;28;20244;-60
2023/06/10 09:03:15;;;;;;;6.03;2.87;;;26.10;99.90;;;;;;5088758;28;20226;-60
2023/06/10 09:05:43;;;;;;;5.90;2.80;;;26.20;99.90;;;;;;5090337;28;20279;-60
2023/06/10 09:08:12;;;;;;;8.83;2.50;;;26.00;99.90;;;;;;5093221;28;20687;-60
2023/06/10 09:10:41;;;;;;;8.00;2.60;;;26.20;99.90;;;;;;5074520;28;20230;-60
2023/06/10 09:13:10;;;;;;;7.57;2.43;;;26.50;99.90;;;;;;5077297;28;20695;-60
2023/06/10 09:15:40;;;;;;;6.93;2.50;;;26.50;99.90;;;;;;5092958;28;20792;-61
2023/06/10 09:18:08;;;;;;;7.63;2.47;;;27.00;99.90;;;;;;5092886;28;20328;-60
2023/06/10 09:20:36;;;;;;;4.57;2.30;;;27.00;99.90;;;;;;5082407;28;20317;-60
2023/06/10 09:23:05;;;;;;;4.50;2.70;;;26.90;99.90;;;;;;5092508;28;20219;-60
2023/06/10 09:25:38;;;;;;;6.67;2.73;;;27.10;99.90;;;;;;5092157;28;20589;-60
2023/06/10 09:28:15;;;;;;;6.40;2.40;;;27.40;99.90;;;;;;5093199;28;20241;-60
2023/06/10 09:30:43;;;;;;;5.90;2.30;;;27.40;99.90;;;;;;5085650;28;20700;-60
2023/06/10 09:33:14;;;;;;;5.83;2.30;;;27.20;99.90;;;;;;5093039;28;20221;-60
2023/06/10 09:35:47;;;;;;;8.27;2.53;;;27.30;99.90;;;;;;5093507;28;20372;-60
2023/06/10 09:38:16;;;;;;;3.77;2.30;;;27.30;99.90;;;;;;5092845;28;20226;-60
2023/06/10 09:40:51;;;;;;;5.03;2.50;;;27.50;99.90;;;;;;5077654;28;20348;-60
2023/06/10 09:43:21;;;;;;;8.37;2.23;;;27.40;99.90;;;;;;5081597;28;20217;-60
2023/06/10 09:45:50;;;;;;;8.33;2.70;;;27.70;99.90;;;;;;5093123;28;20241;-60
2023/06/10 09:48:18;;;;;;;6.27;2.40;;;28.10;99.90;;;;;;5092769;28;20219;-60
2023/06/10 09:50:47;;;;;;;8.40;2.63;;;28.00;99.90;;;;;;5092562;28;20309;-60
2023/06/10 09:53:17;;;;;;;4.60;2.33;;;28.10;99.90;;;;;;5092047;28;20272;-60
2023/06/10 09:55:46;;;;;;;8.23;2.87;;;28.20;99.90;;;;;;5091194;28;20264;-61
2023/06/10 09:58:15;;;;;;;6.77;2.67;;;28.00;99.90;;;;;;5092666;28;20692;-60
2023/06/10 10:00:44;;;;;;;4.17;2.07;;;27.90;99.90;;;;;;5091990;28;20593;-60
2023/06/10 10:03:24;;;;;;;5.27;2.63;;;28.70;99.90;;;;;;5073890;28;20219;-60
2023/06/10 10:05:59;;;;;;;6.03;2.93;;;29.30;99.90;;;;;;5093558;28;20223;-60
2023/06/10 10:08:27;;;;;;;5.67;2.70;;;29.20;99.90;;;;;;5092168;28;20221;-60
2023/06/10 10:10:57;;;;;;;4.70;2.60;;;29.00;99.90;;;;;;5073858;28;20241;-60
2023/06/10 10:13:27;;;;;;;5.67;2.70;;;28.70;99.90;;;;;;5074709;28;20229;-60
2023/06/10 10:16:00;;;;;;;5.17;2.60;;;28.70;99.90;;;;;;5092204;28;20250;-59
2023/06/10 10:18:31;;;;;;;5.63;2.63;;;28.50;99.90;;;;;;5091964;28;20862;-60
2023/06/10 10:21:03;;;;;;;5.43;2.60;;;28.80;99.90;;;;;;5092495;28;20559;-60
2023/06/10 10:23:39;;;;;;;5.97;2.40;;;29.30;99.90;;;;;;5085619;28;20238;-60
2023/06/10 10:26:10;;;;;;;5.47;2.40;;;29.50;99.90;;;;;;5092247;28;20307;-60
2023/06/10 10:28:46;;;;;;;5.90;2.53;;;29.70;99.90;;;;;;5092109;28;20229;-60
2023/06/10 10:31:19;;;;;;;5.77;2.70;;;29.50;99.90;;;;;;5091854;28;20293;-60
2023/06/10 10:33:56;;;;;;;5.70;2.57;;;29.30;99.90;;;;;;5095417;28;20305;-60
2023/06/10 10:36:24;;;;;;;6.50;2.60;;;29.20;99.90;;;;;;5096902;28;20240;-60
2023/06/10 10:38:52;;;;;;;6.53;2.67;;;29.50;99.90;;;;;;5096153;28;20582;-60
2023/06/10 10:41:21;;;;;;;6.10;3.10;;;29.70;99.90;;;;;;5095704;28;20219;-60
2023/06/10 10:43:51;;;;;;;7.37;2.80;;;29.70;99.90;;;;;;5093251;28;20267;-60
2023/06/10 10:46:20;;;;;;;4.43;2.70;;;29.60;99.90;;;;;;5095991;28;20272;-60
2023/06/10 10:48:54;;;;;;;6.00;2.70;;;29.80;99.90;;;;;;5089313;28;20639;-60
2023/06/10 10:51:24;;;;;;;5.13;2.43;;;29.80;99.50;;;;;;5095520;28;20227;-60
2023/06/10 10:54:11;;;;;;;7.27;2.70;;;29.70;99.10;;;;;;5089355;28;20250;-60
2023/06/10 10:56:39;;;;;;;5.57;2.33;;;29.40;99.10;;;;;;5094615;28;20313;-60
2023/06/10 10:59:09;;;;;;;5.47;2.63;;;30.00;99.40;;;;;;5095949;28;20343;-60
2023/06/10 11:01:46;;;;;;;5.97;2.87;;;30.20;99.40;;;;;;5095284;28;20230;-60
2023/06/10 11:04:18;;;;;;;4.23;2.40;;;30.50;99.20;;;;;;5088638;28;20215;-60
2023/06/10 11:06:53;;;;;;;4.43;2.50;;;30.70;97.90;;;;;;5096245;28;20258;-60
2023/06/10 11:09:29;;;;;;;4.30;2.43;;;30.60;98.00;;;;;;5095599;28;20237;-60
2023/06/10 11:11:59;;;;;;;5.77;2.73;;;30.70;97.90;;;;;;5084107;28;20230;-60
2023/06/10 11:14:29;;;;;;;6.73;2.90;;;30.70;98.20;;;;;;5093433;28;20216;-59
2023/06/10 11:17:00;;;;;;;5.90;2.40;;;30.80;98.00;;;;;;5093238;28;20278;-60
2023/06/10 11:19:35;;;;;;;4.67;2.63;;;30.60;98.10;;;;;;5091689;28;20682;-60
2023/06/10 11:22:06;;;;;;;5.70;2.87;;;30.40;97.80;;;;;;5075130;28;20231;-61
2023/06/10 11:24:34;;;;;;;8.97;2.93;;;30.20;97.70;;;;;;5091595;28;20237;-61
2023/06/10 11:27:19;;;;;;;4.53;2.77;;;30.40;98.50;;;;;;5076588;28;20220;-60
2023/06/10 11:29:58;;;;;;;6.33;3.10;;;30.40;98.20;;;;;;5075078;28;20226;-60
2023/06/10 11:32:32;;;;;;;7.53;2.90;;;30.50;97.90;;;;;;5090005;28;20230;-60
2023/06/10 11:35:01;;;;;;;7.33;2.90;;;30.80;98.80;;;;;;5095851;28;20220;-60
2023/06/10 11:37:29;;;;;;;6.77;3.20;;;31.50;98.20;;;;;;5101911;28;20726;-59
2023/06/10 11:39:57;;;;;;;5.93;3.10;;;31.60;97.10;;;;;;5095172;28;20233;-60
2023/06/10 11:42:25;;;;;;;5.90;3.00;;;31.10;97.00;;;;;;5085239;28;20231;-60
2023/06/10 11:44:55;;;;;;;6.80;3.10;;;31.00;97.30;;;;;;5092904;28;20225;-60
2023/06/10 11:47:23;;;;;;;5.67;3.17;;;30.80;98.30;;;;;;5087733;28;20295;-60
2023/06/10 11:49:58;;;;;;;5.10;2.97;;;30.40;98.90;;;;;;5076921;28;20329;-60
2023/06/10 11:52:28;;;;;;;8.20;3.10;;;30.20;97.70;;;;;;5094781;28;20222;-59
2023/06/10 11:54:56;;;;;;;3.80;2.67;;;30.40;98.30;;;;;;5093892;28;20271;-60
2023/06/10 11:57:25;;;;;;;6.27;2.80;;;30.80;98.30;;;;;;5077758;28;20298;-59
2023/06/10 11:59:53;;;;;;;7.20;2.90;;;30.70;98.10;;;;;;5074734;28;20298;-60
2023/06/10 12:02:22;;;;;;;9.17;3.30;;;30.50;98.40;;;;;;5089152;28;20229;-60
2023/06/10 12:04:50;;;;;;;7.57;3.40;;;30.20;99.00;;;;;;5094405;28;20280;-60
2023/06/10 12:07:22;;;;;;;5.10;3.17;;;29.90;98.70;;;;;;5094526;28;20307;-60
2023/06/10 12:10:00;;;;;;;9.57;3.37;;;29.50;98.60;;;;;;5094360;28;20623;-60
2023/06/10 12:12:46;;;;;;;6.00;3.60;;;29.20;99.70;;;;;;5083291;28;20245;-60
2023/06/10 12:15:24;;;;;;;7.40;3.10;;;29.00;99.90;;;;;;5094164;28;20225;-60
2023/06/10 12:17:52;;;;;;;7.00;3.23;;;29.00;99.90;;;;;;5093992;28;20228;-59
2023/06/10 12:20:28;;;;;;;7.73;3.30;;;29.20;99.90;;;;;;5094403;28;20272;-60
2023/06/10 12:22:57;;;;;;;5.67;3.10;;;29.20;99.90;;;;;;5093884;28;20251;-60
2023/06/10 12:25:26;;;;;;;10.43;3.70;;;28.90;99.90;;;;;;5093941;28;20219;-59
2023/06/10 12:27:57;;;;;;;5.83;3.17;;;28.60;99.90;;;;;;5076440;28;20683;-60
2023/06/10 12:30:27;;;;;;;5.00;3.33;;;28.80;99.90;;;;;;5073266;28;20224;-60
2023/06/10 12:32:56;;;;;;;6.50;3.40;;;28.80;99.90;;;;;;5093106;28;20254;-60
2023/06/10 12:35:25;;;;;;;5.60;3.33;;;28.90;99.90;;;;;;5094539;28;20577;-60
2023/06/10 12:38:00;;;;;;;3.47;2.83;;;28.80;99.90;;;;;;5093814;28;20230;-60
2023/06/10 12:40:31;;;;;;;7.90;3.70;;;28.90;99.90;;;;;;5093376;28;20214;-60
2023/06/10 12:43:00;;;;;;;6.53;3.47;;;28.90;99.90;;;;;;5062189;28;20242;-60
2023/06/10 12:45:29;;;;;;;5.47;3.50;;;28.70;99.90;;;;;;5093456;28;20663;-60
2023/06/10 12:48:08;;;;;;;5.93;3.47;;;28.50;99.90;;;;;;5093620;28;20678;-60
2023/06/10 12:50:38;;;;;;;6.93;3.87;;;28.60;99.90;;;;;;5093508;28;20362;-60
2023/06/10 12:53:08;;;;;;;4.87;3.40;;;28.60;99.90;;;;;;5093844;28;20765;-60
2023/06/10 12:55:36;;;;;;;9.40;3.57;;;28.30;99.90;;;;;;5093044;28;20242;-60
2023/06/10 12:58:05;;;;;;;7.27;3.40;;;28.40;99.90;;;;;;5087457;28;20229;-60